Time;durP1;ratioP1;P1;durP2;ratioP2;P2;SDS_P1;SDS_P2;PMS_P1;PMS_P2;Temp;Humidity;BMP_temperature;BMP_pressure;BME280_temperature;BME280_humidity;BME280_pressure;Samples;Min_cycle;Max_cycle;Signal;HPM_P1;HPM_P2
2022/06/03 00:02:59;;;;;;;5.70;2.27;;;12.80;99.90;;;;;;4963824;28;20232;-74
2022/06/03 00:05:53;;;;;;;6.27;2.37;;;12.80;99.90;;;;;;4955587;28;20205;-73
2022/06/03 00:09:02;;;;;;;5.47;2.50;;;12.80;99.90;;;;;;4956004;28;20184;-74
2022/06/03 00:12:14;;;;;;;3.23;2.23;;;12.80;99.90;;;;;;4967637;28;20225;-73
2022/06/03 00:15:37;;;;;;;4.43;2.53;;;12.70;99.90;;;;;;4948611;28;20190;-73
2022/06/03 00:18:48;;;;;;;9.97;2.73;;;12.70;99.90;;;;;;4935431;28;20273;-73
2022/06/03 00:21:45;;;;;;;5.07;2.60;;;12.60;99.90;;;;;;4958951;28;20216;-74
2022/06/03 00:24:51;;;;;;;4.43;2.67;;;12.60;99.90;;;;;;4960518;28;20189;-73
2022/06/03 00:27:50;;;;;;;3.97;2.57;;;12.60;99.90;;;;;;4957315;28;20220;-73
2022/06/03 00:31:04;;;;;;;7.00;2.70;;;12.60;99.90;;;;;;4963653;28;20596;-76
2022/06/03 00:34:18;;;;;;;6.30;2.83;;;12.60;99.90;;;;;;4956876;28;20239;-74
2022/06/03 00:37:33;;;;;;;5.17;2.43;;;12.50;99.90;;;;;;4955023;28;20217;-74
2022/06/03 00:40:39;;;;;;;7.67;3.20;;;12.40;99.90;;;;;;4955323;28;20270;-74
2022/06/03 00:43:47;;;;;;;8.93;3.30;;;12.40;99.90;;;;;;4949728;28;20335;-73
2022/06/03 00:46:51;;;;;;;5.13;2.90;;;12.30;99.90;;;;;;4954761;28;20209;-74
2022/06/03 00:49:39;;;;;;;5.20;3.17;;;12.30;99.90;;;;;;4967340;28;20197;-74
2022/06/03 00:52:54;;;;;;;8.63;3.87;;;12.30;99.90;;;;;;4952283;28;20225;-75
2022/06/03 00:56:21;;;;;;;4.77;3.07;;;12.20;99.90;;;;;;4950090;28;20741;-74
2022/06/03 00:59:49;;;;;;;5.10;3.00;;;12.20;99.90;;;;;;4956916;28;20229;-73
2022/06/03 01:03:11;;;;;;;6.10;2.90;;;12.10;99.90;;;;;;4961024;28;20234;-74
2022/06/03 01:06:33;;;;;;;8.20;3.63;;;12.00;99.90;;;;;;4951985;28;20181;-74
2022/06/03 01:09:30;;;;;;;7.27;4.07;;;12.00;99.90;;;;;;4966140;28;20544;-74
2022/06/03 01:12:26;;;;;;;7.57;3.53;;;11.90;99.90;;;;;;4954911;28;20250;-74
2022/06/03 01:15:30;;;;;;;6.83;3.67;;;11.90;99.90;;;;;;4952071;28;20242;-74
2022/06/03 01:18:18;;;;;;;13.80;3.77;;;11.80;99.90;;;;;;4969838;28;20309;-74
2022/06/03 01:21:30;;;;;;;4.77;3.73;;;11.80;99.90;;;;;;4952411;28;20348;-75
2022/06/03 01:24:32;;;;;;;7.17;3.77;;;11.80;99.90;;;;;;4962922;28;20193;-73
2022/06/03 01:27:25;;;;;;;6.40;3.83;;;11.70;99.90;;;;;;4960335;28;20205;-73
2022/06/03 01:30:31;;;;;;;7.43;3.57;;;11.80;99.90;;;;;;4955757;28;20205;-74
2022/06/03 01:33:35;;;;;;;6.97;3.63;;;11.70;99.90;;;;;;4961288;28;20209;-74
2022/06/03 01:36:53;;;;;;;7.37;4.80;;;11.70;99.90;;;;;;4950664;28;20201;-75
2022/06/03 01:39:55;;;;;;;8.10;3.57;;;11.70;99.90;;;;;;4956542;28;20233;-74
2022/06/03 01:43:04;;;;;;;7.57;3.37;;;11.60;99.90;;;;;;4967789;28;20181;-74
2022/06/03 01:45:56;;;;;;;14.17;3.73;;;11.60;99.90;;;;;;4955487;28;20670;-75
2022/06/03 01:48:56;;;;;;;8.00;4.07;;;11.50;99.90;;;;;;4960731;28;20213;-74
2022/06/03 01:51:58;;;;;;;6.57;3.63;;;11.50;99.90;;;;;;4953694;28;20237;-74
2022/06/03 01:55:37;;;;;;;6.23;4.03;;;11.50;99.90;;;;;;4956111;28;20213;-74
2022/06/03 01:58:31;;;;;;;5.30;3.63;;;11.40;99.90;;;;;;4957680;28;20317;-74
2022/06/03 02:01:27;;;;;;;5.60;4.03;;;11.40;99.90;;;;;;4960337;28;20262;-73
2022/06/03 02:04:54;;;;;;;5.53;3.97;;;11.40;99.90;;;;;;4959841;28;20254;-74
2022/06/03 02:08:16;;;;;;;8.17;4.07;;;11.40;99.90;;;;;;4955207;28;20177;-74
2022/06/03 02:11:28;;;;;;;7.83;3.67;;;11.40;99.90;;;;;;4971460;28;20281;-74
2022/06/03 02:14:59;;;;;;;6.93;4.00;;;11.30;99.90;;;;;;4961242;28;20205;-76
2022/06/03 02:18:00;;;;;;;12.27;4.90;;;11.30;99.90;;;;;;4962730;28;20206;-74
2022/06/03 02:21:10;;;;;;;6.57;4.10;;;11.30;99.90;;;;;;4956083;28;20240;-74
2022/06/03 02:24:32;;;;;;;7.57;3.90;;;11.20;99.90;;;;;;4959731;28;20193;-74
2022/06/03 02:27:31;;;;;;;6.90;4.40;;;11.30;99.90;;;;;;4959914;28;20270;-74
2022/06/03 02:30:42;;;;;;;8.03;3.90;;;11.20;99.90;;;;;;4957367;28;20264;-74
2022/06/03 02:33:50;;;;;;;6.10;4.13;;;11.20;99.90;;;;;;4956473;28;20186;-74
2022/06/03 02:37:13;;;;;;;12.40;4.50;;;11.20;99.90;;;;;;4964049;28;20265;-74
2022/06/03 02:40:13;;;;;;;8.37;4.13;;;11.20;99.90;;;;;;4954224;28;20190;-73
2022/06/03 02:43:15;;;;;;;9.50;4.50;;;11.20;99.90;;;;;;4951880;28;20710;-75
2022/06/03 02:46:17;;;;;;;8.07;4.43;;;11.10;99.90;;;;;;4971595;28;20181;-74
2022/06/03 02:49:20;;;;;;;8.33;3.90;;;11.10;99.90;;;;;;4957779;28;20559;-74
2022/06/03 02:52:42;;;;;;;7.57;4.43;;;11.00;99.90;;;;;;4956992;28;20227;-74
2022/06/03 02:55:52;;;;;;;8.27;4.47;;;11.00;99.90;;;;;;4952979;28;20182;-74
2022/06/03 02:59:17;;;;;;;9.90;4.90;;;11.00;99.90;;;;;;4971967;28;20237;-73
2022/06/03 03:02:23;;;;;;;6.30;4.73;;;10.90;99.90;;;;;;4954115;28;20318;-74
2022/06/03 03:05:21;;;;;;;9.63;4.50;;;10.80;99.90;;;;;;4961576;28;20622;-74
2022/06/03 03:08:27;;;;;;;7.93;4.47;;;10.80;99.90;;;;;;4956048;28;20236;-74
2022/06/03 03:11:17;;;;;;;8.63;4.60;;;10.80;99.90;;;;;;4955784;28;20253;-74
2022/06/03 03:14:37;;;;;;;6.57;4.37;;;10.80;99.90;;;;;;4967811;28;20186;-74
2022/06/03 03:17:38;;;;;;;6.57;4.57;;;10.80;99.90;;;;;;4948360;28;20203;-73
2022/06/03 03:20:44;;;;;;;6.50;4.73;;;10.80;99.90;;;;;;4975185;28;20217;-74
2022/06/03 03:23:50;;;;;;;8.37;4.60;;;10.80;99.90;;;;;;4958978;28;20681;-74
2022/06/03 03:26:53;;;;;;;8.80;5.17;;;10.70;99.90;;;;;;4957623;28;20189;-74
2022/06/03 03:29:53;;;;;;;12.87;5.50;;;10.80;99.90;;;;;;4956640;28;20306;-74
2022/06/03 03:33:09;;;;;;;10.83;4.60;;;10.70;99.90;;;;;;4961397;28;20193;-73
2022/06/03 03:35:56;;;;;;;7.23;4.40;;;10.70;99.90;;;;;;4965747;28;20315;-73
2022/06/03 03:39:06;;;;;;;8.37;5.23;;;10.60;99.90;;;;;;4970409;28;20226;-74
2022/06/03 03:42:16;;;;;;;10.43;4.67;;;10.60;99.90;;;;;;4957503;28;20213;-74
2022/06/03 03:45:35;;;;;;;11.67;4.97;;;10.60;99.90;;;;;;4956315;28;20212;-74
2022/06/03 03:48:36;;;;;;;10.03;5.07;;;10.60;99.90;;;;;;4964689;28;20198;-74
2022/06/03 03:51:42;;;;;;;7.07;5.30;;;10.60;99.90;;;;;;4954868;28;20272;-76
2022/06/03 03:54:58;;;;;;;6.43;4.87;;;10.60;99.90;;;;;;4970458;28;20273;-75
2022/06/03 03:58:08;;;;;;;7.73;5.40;;;10.50;99.90;;;;;;4963046;28;20185;-74
2022/06/03 04:00:59;;;;;;;9.67;5.53;;;10.50;99.90;;;;;;4949809;28;20220;-74
2022/06/03 04:04:07;;;;;;;11.93;5.73;;;10.50;99.90;;;;;;4955736;28;20709;-75
2022/06/03 04:07:06;;;;;;;12.93;5.47;;;10.50;99.90;;;;;;4947486;28;20236;-76
2022/06/03 04:10:09;;;;;;;11.57;5.50;;;10.60;99.90;;;;;;4965723;28;20305;-74
2022/06/03 04:13:09;;;;;;;8.03;5.30;;;10.60;99.90;;;;;;4956432;28;20309;-74
2022/06/03 04:16:31;;;;;;;12.03;6.03;;;10.60;99.90;;;;;;4962089;28;20209;-74
2022/06/03 04:19:54;;;;;;;5.93;5.30;;;10.60;99.90;;;;;;4968131;28;20552;-74
2022/06/03 04:22:50;;;;;;;8.03;5.80;;;10.70;99.90;;;;;;4950700;28;20237;-74
2022/06/03 04:25:53;;;;;;;13.70;5.67;;;10.70;99.90;;;;;;4956187;28;20197;-74
2022/06/03 04:28:59;;;;;;;7.17;5.57;;;10.80;99.90;;;;;;4968407;28;20195;-73
2022/06/03 04:32:03;;;;;;;9.73;5.83;;;10.90;99.90;;;;;;4961824;28;20228;-74
2022/06/03 04:35:14;;;;;;;11.67;6.30;;;10.90;99.90;;;;;;4968494;28;20185;-74
2022/06/03 04:38:32;;;;;;;11.17;6.33;;;11.00;99.90;;;;;;4966550;28;20269;-74
2022/06/03 04:41:35;;;;;;;8.53;5.57;;;11.10;99.90;;;;;;4949458;28;20230;-74
2022/06/03 04:44:40;;;;;;;10.53;6.00;;;11.10;99.90;;;;;;4953231;28;20229;-74
2022/06/03 04:47:27;;;;;;;12.07;5.50;;;11.10;99.90;;;;;;4964764;28;20184;-74
2022/06/03 04:56:19;;;;;;;7.57;5.50;;;11.30;99.90;;;;;;4988114;28;20208;-74
2022/06/03 04:59:34;;;;;;;9.90;5.67;;;11.40;99.90;;;;;;4968363;28;20181;-75
2022/06/03 05:02:38;;;;;;;8.27;5.43;;;11.40;99.90;;;;;;4974290;28;20256;-73
2022/06/03 05:05:59;;;;;;;9.10;5.57;;;11.50;99.90;;;;;;4979334;28;20183;-74
2022/06/03 05:08:50;;;;;;;10.03;6.00;;;11.60;99.90;;;;;;4976290;28;20241;-73
2022/06/03 05:12:09;;;;;;;15.20;5.77;;;11.60;99.90;;;;;;4968807;28;20231;-75
2022/06/03 05:15:06;;;;;;;9.30;5.63;;;11.70;99.90;;;;;;4968448;28;20200;-71
2022/06/03 05:18:05;;;;;;;8.77;5.40;;;11.80;99.90;;;;;;4972620;28;20188;-72
2022/06/03 05:21:26;;;;;;;8.83;5.60;;;11.90;99.90;;;;;;4972738;28;20272;-73
2022/06/03 05:24:41;;;;;;;10.83;5.50;;;11.90;99.90;;;;;;4960991;28;20201;-73
2022/06/03 05:27:53;;;;;;;11.83;5.10;;;12.00;99.90;;;;;;4969682;28;20243;-73
2022/06/03 05:30:50;;;;;;;8.93;5.40;;;12.10;99.90;;;;;;4979391;28;20242;-74
2022/06/03 05:33:56;;;;;;;8.60;4.93;;;12.10;99.90;;;;;;4976352;28;20200;-73
2022/06/03 05:37:03;;;;;;;11.73;5.70;;;12.20;99.90;;;;;;4966789;28;20273;-75
2022/06/03 05:40:07;;;;;;;11.60;4.83;;;12.30;99.90;;;;;;4973002;28;20177;-74
2022/06/03 05:43:10;;;;;;;8.93;5.40;;;12.40;99.90;;;;;;4979083;28;20184;-71
2022/06/03 05:46:10;;;;;;;8.60;4.90;;;12.50;99.90;;;;;;4966115;28;20208;-74
2022/06/03 05:49:26;;;;;;;7.33;4.63;;;12.50;99.90;;;;;;4977370;28;20197;-73
2022/06/03 05:52:25;;;;;;;9.97;4.37;;;12.70;99.90;;;;;;4967925;28;20240;-73
2022/06/03 05:55:21;;;;;;;10.47;4.50;;;12.70;99.90;;;;;;4976019;28;20209;-73
2022/06/03 05:58:14;;;;;;;6.40;5.10;;;12.80;99.90;;;;;;4973634;28;20187;-74
2022/06/03 06:01:35;;;;;;;9.47;4.63;;;12.90;99.90;;;;;;4993582;28;20807;-75
2022/06/03 06:05:01;;;;;;;11.50;4.80;;;13.00;99.90;;;;;;4967937;28;20205;-73
2022/06/03 06:07:57;;;;;;;8.93;4.53;;;13.10;99.90;;;;;;4966831;28;20184;-74
2022/06/03 06:10:53;;;;;;;8.17;4.10;;;13.20;99.90;;;;;;4986142;28;20243;-74
2022/06/03 06:14:13;;;;;;;6.07;4.73;;;13.20;99.90;;;;;;4979251;28;20650;-73
2022/06/03 06:17:08;;;;;;;9.30;4.37;;;13.30;99.90;;;;;;4985949;28;20200;-74
2022/06/03 06:19:57;;;;;;;9.23;4.73;;;13.40;99.90;;;;;;4977073;28;20204;-73
2022/06/03 06:22:48;;;;;;;5.87;3.90;;;13.50;99.90;;;;;;4983533;28;20191;-74
2022/06/03 06:25:45;;;;;;;6.93;3.87;;;13.60;99.90;;;;;;4972905;28;20173;-73
2022/06/03 06:28:58;;;;;;;5.63;4.00;;;13.70;99.90;;;;;;4971826;28;20189;-74
2022/06/03 06:32:10;;;;;;;4.87;3.87;;;13.80;99.90;;;;;;4980985;28;20617;-73
2022/06/03 06:35:16;;;;;;;8.10;4.03;;;13.80;99.90;;;;;;4990933;28;20197;-75
2022/06/03 06:38:26;;;;;;;8.90;3.97;;;13.90;99.90;;;;;;4976623;28;20878;-76
2022/06/03 06:41:46;;;;;;;4.43;3.60;;;14.00;99.90;;;;;;4973876;28;20301;-74
2022/06/03 06:44:54;;;;;;;9.20;3.37;;;14.20;99.90;;;;;;4971632;28;20189;-76
2022/06/03 06:47:52;;;;;;;9.73;3.60;;;14.30;99.90;;;;;;4980260;28;20276;-73
2022/06/03 06:50:50;;;;;;;6.57;3.87;;;14.40;99.90;;;;;;4969064;28;20268;-73
2022/06/03 06:53:51;;;;;;;6.57;3.70;;;14.50;99.90;;;;;;4976302;28;20608;-74
2022/06/03 06:56:38;;;;;;;7.83;3.27;;;14.60;99.90;;;;;;4976237;28;20224;-74
2022/06/03 06:59:42;;;;;;;5.13;3.27;;;14.70;99.90;;;;;;4979944;28;20234;-74
2022/06/03 07:02:30;;;;;;;5.27;3.47;;;14.80;99.90;;;;;;4974066;28;20262;-74
2022/06/03 07:05:32;;;;;;;4.97;3.27;;;14.90;99.90;;;;;;4975960;28;20684;-74
2022/06/03 07:08:26;;;;;;;5.57;3.33;;;15.00;99.90;;;;;;4979728;28;20304;-74
2022/06/03 07:11:36;;;;;;;8.33;3.03;;;15.10;99.90;;;;;;4971958;28;20686;-75
2022/06/03 07:14:34;;;;;;;7.60;3.57;;;15.20;99.90;;;;;;4979436;28;20187;-74
2022/06/03 07:20:58;;;;;;;5.83;3.23;;;15.30;99.90;;;;;;4994426;28;20340;-74
2022/06/03 07:24:03;;;;;;;5.37;3.60;;;15.40;99.90;;;;;;4982443;28;20276;-73
2022/06/03 07:26:53;;;;;;;7.77;3.17;;;15.50;99.90;;;;;;4990022;28;20312;-75
2022/06/03 07:29:56;;;;;;;3.77;2.80;;;15.50;99.90;;;;;;4989326;28;20196;-74
2022/06/03 07:32:47;;;;;;;5.70;3.07;;;15.50;99.90;;;;;;4977545;28;20213;-74
2022/06/03 07:35:43;;;;;;;3.63;3.00;;;15.60;99.90;;;;;;4980745;28;20728;-74
2022/06/03 07:38:40;;;;;;;6.07;3.10;;;15.70;99.90;;;;;;4980706;28;20193;-73
2022/06/03 07:41:30;;;;;;;5.33;2.90;;;15.80;99.90;;;;;;4993500;28;20232;-73
2022/06/03 07:44:24;;;;;;;6.00;3.43;;;15.90;99.90;;;;;;4979389;28;20203;-74
2022/06/03 07:47:09;;;;;;;4.10;2.77;;;16.00;99.90;;;;;;4981181;28;20181;-74
2022/06/03 07:49:58;;;;;;;4.80;3.10;;;16.20;99.90;;;;;;4977015;28;20273;-73
2022/06/03 07:52:52;;;;;;;5.60;3.33;;;16.30;99.90;;;;;;4968282;28;20233;-74
2022/06/03 07:55:36;;;;;;;4.60;3.00;;;16.20;99.90;;;;;;4991175;28;20201;-73
2022/06/03 07:58:22;;;;;;;5.53;3.20;;;16.30;99.90;;;;;;4986188;28;20279;-73
2022/06/03 08:01:42;;;;;;;6.90;2.90;;;16.50;99.90;;;;;;4977401;28;20715;-75
2022/06/03 08:04:36;;;;;;;5.50;3.17;;;16.50;99.90;;;;;;4974351;28;20197;-74
2022/06/03 08:10:56;;;;;;;4.63;2.77;;;16.80;99.90;;;;;;4980543;28;20719;-74
2022/06/03 08:13:41;;;;;;;2.90;2.60;;;16.90;99.90;;;;;;4982927;28;20212;-74
2022/06/03 08:16:29;;;;;;;5.67;3.07;;;17.00;99.90;;;;;;4986415;28;20184;-74
2022/06/03 08:19:21;;;;;;;5.00;3.03;;;17.10;99.90;;;;;;4977171;28;20256;-73
2022/06/03 08:22:11;;;;;;;5.57;2.60;;;17.20;99.90;;;;;;4980072;28;20213;-73
2022/06/03 08:24:57;;;;;;;4.37;2.80;;;17.20;99.90;;;;;;4967408;28;20732;-75
2022/06/03 08:27:43;;;;;;;4.30;2.87;;;17.30;99.90;;;;;;4971673;28;20297;-75
2022/06/03 08:30:28;;;;;;;3.00;2.80;;;17.40;99.90;;;;;;4997362;28;20254;-75
2022/06/03 08:33:15;;;;;;;3.77;2.43;;;17.40;99.90;;;;;;4989736;28;20197;-75
2022/06/03 08:36:00;;;;;;;2.83;2.30;;;17.50;99.90;;;;;;4984392;28;20188;-75
2022/06/03 08:38:54;;;;;;;4.40;3.60;;;17.60;99.90;;;;;;4980516;28;20185;-74
2022/06/03 08:42:08;;;;;;;4.20;3.40;;;17.70;99.90;;;;;;4982706;28;20219;-74
2022/06/03 08:45:10;;;;;;;3.33;3.03;;;17.80;99.90;;;;;;4972064;28;20182;-75
2022/06/03 08:47:56;;;;;;;5.93;3.17;;;17.80;99.90;;;;;;4979475;28;20200;-73
2022/06/03 08:50:47;;;;;;;5.10;3.33;;;17.80;99.90;;;;;;4973669;28;20256;-75
2022/06/03 08:53:54;;;;;;;6.33;3.10;;;17.80;99.90;;;;;;4981770;28;20207;-75
2022/06/03 08:56:41;;;;;;;3.83;2.80;;;17.80;99.90;;;;;;4984328;28;20260;-74
2022/06/03 08:59:34;;;;;;;4.63;2.40;;;17.90;99.90;;;;;;4979476;28;20189;-74
2022/06/03 09:02:42;;;;;;;4.50;2.67;;;17.90;99.90;;;;;;4985649;28;20220;-74
2022/06/03 09:05:37;;;;;;;4.00;3.00;;;18.00;99.90;;;;;;4985409;28;20193;-74
2022/06/03 09:08:36;;;;;;;5.20;2.63;;;18.00;99.90;;;;;;4966604;28;20333;-75
2022/06/03 09:11:40;;;;;;;3.60;2.77;;;18.10;99.90;;;;;;4972141;28;20219;-74
2022/06/03 09:14:27;;;;;;;3.20;2.60;;;18.30;99.90;;;;;;4975803;28;20922;-74
2022/06/03 09:17:36;;;;;;;4.77;2.63;;;18.30;99.90;;;;;;4997927;28;20193;-74
2022/06/03 09:20:42;;;;;;;2.60;2.40;;;18.40;99.90;;;;;;4973588;28;20264;-74
2022/06/03 09:23:30;;;;;;;3.87;2.90;;;18.40;99.90;;;;;;4990553;28;20192;-74
2022/06/03 09:26:31;;;;;;;3.27;3.03;;;18.50;99.90;;;;;;4976743;28;20189;-74
2022/06/03 09:29:16;;;;;;;2.93;2.73;;;18.50;99.90;;;;;;4981910;28;20258;-75
2022/06/03 09:32:03;;;;;;;3.13;2.90;;;18.50;99.90;;;;;;4985095;28;20220;-75
2022/06/03 09:35:01;;;;;;;3.80;3.00;;;18.60;99.90;;;;;;4985581;28;20192;-74
2022/06/03 09:37:51;;;;;;;3.97;3.00;;;18.70;99.90;;;;;;4978366;28;20244;-74
2022/06/03 09:40:40;;;;;;;4.40;3.07;;;18.80;99.90;;;;;;4982520;28;20224;-75
2022/06/03 09:43:31;;;;;;;3.73;2.43;;;18.90;99.90;;;;;;4981065;28;20191;-74
2022/06/03 09:46:16;;;;;;;4.18;2.75;;;19.00;99.90;;;;;;4991610;28;20228;-77
2022/06/03 09:49:02;;;;;;;3.65;2.75;;;19.10;99.90;;;;;;4986697;28;20197;-74
2022/06/03 09:51:55;;;;;;;3.03;2.65;;;19.10;99.90;;;;;;4983056;28;20232;-74
2022/06/03 09:54:42;;;;;;;3.00;2.80;;;19.20;99.90;;;;;;4974629;28;20255;-75
2022/06/03 09:57:40;;;;;;;3.28;2.80;;;19.30;99.90;;;;;;4966440;28;20187;-75
2022/06/03 10:00:29;;;;;;;3.47;2.80;;;19.30;99.90;;;;;;4979313;28;20243;-74
2022/06/03 10:03:14;;;;;;;2.73;2.50;;;19.40;99.90;;;;;;4981680;28;20315;-75
2022/06/03 10:06:00;;;;;;;4.05;3.20;;;19.40;99.90;;;;;;4969221;28;20262;-75
2022/06/03 10:18:22;;;;;;;4.57;2.78;;;19.40;99.90;;;;;;4986284;28;20188;-74
2022/06/03 10:21:10;;;;;;;3.87;2.87;;;19.40;99.90;;;;;;4977740;28;20268;-73
2022/06/03 10:24:00;;;;;;;7.53;2.80;;;19.40;99.90;;;;;;4982733;28;20576;-76
2022/06/03 10:26:49;;;;;;;3.15;2.28;;;19.40;99.90;;;;;;4969850;28;20193;-74
2022/06/03 10:29:47;;;;;;;4.70;2.00;;;19.40;99.90;;;;;;4968584;28;20220;-74
2022/06/03 10:32:33;;;;;;;2.65;2.15;;;19.50;99.90;;;;;;4975988;28;20211;-73
2022/06/03 10:35:18;;;;;;;2.55;2.00;;;19.60;99.90;;;;;;4966757;28;20260;-75
2022/06/03 10:38:03;;;;;;;2.75;2.30;;;19.70;99.90;;;;;;4990480;28;20196;-74
2022/06/03 10:40:49;;;;;;;3.40;2.53;;;19.90;99.90;;;;;;4994074;28;20264;-75
2022/06/03 10:43:36;;;;;;;3.75;2.40;;;19.90;99.90;;;;;;4998090;28;20200;-74
2022/06/03 10:46:20;;;;;;;1.90;1.73;;;19.80;99.90;;;;;;4982479;28;20192;-75
2022/06/03 10:49:12;;;;;;;3.60;2.30;;;19.80;99.90;;;;;;4981895;28;20262;-74
2022/06/03 11:01:21;;;;;;;2.20;2.08;;;19.90;99.90;;;;;;4998657;28;20218;-74
2022/06/03 11:04:06;;;;;;;4.05;1.70;;;20.00;99.90;;;;;;4981282;28;20201;-75
2022/06/03 11:06:50;;;;;;;4.38;2.10;;;20.00;99.90;;;;;;4970564;28;20205;-75
2022/06/03 11:09:36;;;;;;;4.35;2.03;;;20.10;99.90;;;;;;4976246;28;20196;-74
2022/06/03 11:12:26;;;;;;;2.28;2.08;;;20.10;99.90;;;;;;4982593;28;20255;-75
2022/06/03 11:15:33;;;;;;;3.40;1.95;;;20.00;99.90;;;;;;5002039;28;20233;-74
2022/06/03 11:18:29;;;;;;;2.40;1.85;;;20.00;99.90;;;;;;4980158;28;20184;-75
2022/06/03 11:21:23;;;;;;;2.53;2.30;;;20.00;99.90;;;;;;4980681;28;20216;-74
2022/06/03 11:24:07;;;;;;;2.63;2.42;;;20.10;99.90;;;;;;4980095;28;20195;-74
2022/06/03 11:26:52;;;;;;;2.60;2.40;;;20.10;99.90;;;;;;4981869;28;20708;-74
2022/06/03 11:29:39;;;;;;;2.15;1.90;;;20.10;99.90;;;;;;4987335;28;20200;-75
2022/06/03 11:32:26;;;;;;;2.33;2.00;;;20.10;99.90;;;;;;4972978;28;20221;-75
2022/06/03 11:35:23;;;;;;;2.88;2.10;;;20.20;99.90;;;;;;4980139;28;20199;-75
2022/06/03 11:38:13;;;;;;;4.15;2.00;;;20.20;99.90;;;;;;4973938;28;20221;-75
2022/06/03 11:41:07;;;;;;;2.00;1.90;;;20.30;99.90;;;;;;4979690;28;20208;-74
2022/06/03 11:44:10;;;;;;;2.65;1.73;;;20.30;99.90;;;;;;4976372;28;20184;-74
2022/06/03 11:47:03;;;;;;;2.00;1.80;;;20.30;99.90;;;;;;4994228;28;20247;-76
2022/06/03 11:49:48;;;;;;;1.85;1.73;;;20.40;99.90;;;;;;4973349;28;20193;-75
2022/06/03 11:52:32;;;;;;;2.03;1.83;;;20.40;99.90;;;;;;4972724;28;20207;-75
2022/06/03 11:55:19;;;;;;;5.90;2.00;;;20.50;99.90;;;;;;4969890;28;20289;-75
2022/06/03 11:58:33;;;;;;;1.92;1.83;;;20.60;99.90;;;;;;4974414;28;20206;-75
2022/06/03 12:02:03;;;;;;;2.58;1.85;;;20.70;99.90;;;;;;4977246;28;20305;-75
2022/06/03 12:05:04;;;;;;;2.88;2.25;;;20.70;99.90;;;;;;4972781;28;20254;-75
2022/06/03 12:08:15;;;;;;;3.38;2.15;;;20.70;99.90;;;;;;4978433;28;20290;-75
2022/06/03 12:11:09;;;;;;;5.10;2.08;;;20.70;99.90;;;;;;4983496;28;20227;-75
2022/06/03 12:14:12;;;;;;;1.83;1.70;;;20.70;99.90;;;;;;4971814;28;20185;-75
2022/06/03 12:17:11;;;;;;;3.85;1.92;;;20.80;99.90;;;;;;4979591;28;20209;-75
2022/06/03 12:19:56;;;;;;;2.08;1.80;;;20.80;99.90;;;;;;4984467;28;20185;-76
2022/06/03 12:22:41;;;;;;;2.63;1.80;;;20.80;99.90;;;;;;4996801;28;20208;-74
2022/06/03 12:25:53;;;;;;;2.05;1.80;;;20.90;99.90;;;;;;4974535;28;20338;-75
2022/06/03 12:28:37;;;;;;;1.63;1.50;;;21.00;99.90;;;;;;4969675;28;20189;-74
2022/06/03 12:31:42;;;;;;;2.25;1.63;;;20.90;99.90;;;;;;4975887;28;20257;-75
2022/06/03 12:34:27;;;;;;;1.88;1.77;;;20.90;99.90;;;;;;4972506;28;20205;-75
2022/06/03 12:37:27;;;;;;;1.80;1.60;;;21.00;99.90;;;;;;4992605;28;20240;-75
2022/06/03 12:40:26;;;;;;;2.42;1.77;;;21.10;99.90;;;;;;4975823;28;20192;-75
2022/06/03 12:43:29;;;;;;;1.52;1.40;;;21.20;99.90;;;;;;4977149;28;20269;-74
2022/06/03 12:46:34;;;;;;;3.53;1.48;;;21.20;99.90;;;;;;4980174;28;20708;-75
2022/06/03 12:49:44;;;;;;;1.63;1.50;;;21.20;99.90;;;;;;4978446;28;20239;-74
2022/06/03 12:52:28;;;;;;;1.90;1.50;;;21.20;99.90;;;;;;4982663;28;20255;-74
2022/06/03 12:55:15;;;;;;;3.25;1.40;;;21.20;99.90;;;;;;4980055;28;20296;-75
2022/06/03 12:58:02;;;;;;;1.42;1.33;;;21.30;99.90;;;;;;4973389;28;20278;-74
2022/06/03 13:00:58;;;;;;;2.67;1.33;;;21.30;99.90;;;;;;4971384;28;20212;-74
2022/06/03 13:03:42;;;;;;;1.52;1.33;;;21.40;99.90;;;;;;4986575;28;20246;-76
2022/06/03 13:06:27;;;;;;;3.22;1.60;;;21.50;99.90;;;;;;4984164;28;20682;-75
2022/06/03 13:12:27;;;;;;;2.45;1.33;;;21.60;99.90;;;;;;4994014;28;20252;-73
2022/06/03 13:15:20;;;;;;;1.35;1.20;;;21.70;99.90;;;;;;4969472;28;20227;-74
2022/06/03 13:21:02;;;;;;;3.60;1.60;;;21.70;99.90;;;;;;4983907;28;20221;-75
2022/06/03 13:23:54;;;;;;;1.45;1.35;;;21.60;99.90;;;;;;4973562;28;20265;-73
2022/06/03 13:26:38;;;;;;;3.45;1.30;;;21.60;99.90;;;;;;4989269;28;20188;-74
2022/06/03 13:29:57;;;;;;;1.88;1.40;;;21.70;99.90;;;;;;4972801;28;20256;-75
2022/06/03 13:32:59;;;;;;;1.48;1.20;;;21.80;99.90;;;;;;4969770;28;20186;-75
2022/06/03 13:36:01;;;;;;;1.60;1.50;;;21.90;99.90;;;;;;4966282;28;20188;-74
2022/06/03 13:38:46;;;;;;;2.35;1.73;;;21.90;99.90;;;;;;4981996;28;20189;-73
2022/06/03 13:45:04;;;;;;;1.35;1.10;;;22.00;99.90;;;;;;4984982;28;20247;-76
2022/06/03 13:47:53;;;;;;;1.30;1.20;;;21.90;99.90;;;;;;4937829;28;20267;-74
2022/06/03 13:50:38;;;;;;;2.65;1.40;;;22.00;99.90;;;;;;4972235;28;20716;-74
2022/06/03 13:53:30;;;;;;;2.05;1.30;;;22.10;99.90;;;;;;4974401;28;20239;-75
2022/06/03 13:56:21;;;;;;;2.17;1.48;;;22.10;99.90;;;;;;4979105;28;20304;-75
2022/06/03 13:59:15;;;;;;;1.40;1.30;;;22.10;99.90;;;;;;4983993;28;20220;-75
2022/06/03 14:02:00;;;;;;;2.50;1.30;;;22.10;99.90;;;;;;4990781;28;20223;-75
2022/06/03 14:05:14;;;;;;;1.40;1.30;;;22.10;99.90;;;;;;4971859;28;20507;-74
2022/06/03 14:08:05;;;;;;;3.05;1.10;;;22.20;99.90;;;;;;4967758;28;20231;-76
2022/06/03 14:11:04;;;;;;;1.60;1.42;;;22.30;99.90;;;;;;4980762;28;20224;-75
2022/06/03 14:14:14;;;;;;;5.97;1.42;;;22.30;99.90;;;;;;4979697;28;20186;-74
2022/06/03 14:17:20;;;;;;;1.60;1.20;;;22.30;99.90;;;;;;4973401;28;20248;-74
2022/06/03 14:20:13;;;;;;;2.63;1.17;;;22.40;99.90;;;;;;4982020;28;20195;-74
2022/06/03 14:23:06;;;;;;;1.45;1.00;;;22.40;99.90;;;;;;4978669;28;20656;-74
2022/06/03 14:26:14;;;;;;;1.42;1.30;;;22.40;99.90;;;;;;4976776;28;20192;-74
2022/06/03 14:29:03;;;;;;;2.50;1.15;;;22.40;99.90;;;;;;4989978;28;20715;-75
2022/06/03 14:31:55;;;;;;;2.10;1.20;;;22.50;99.90;;;;;;4963990;28;20224;-75
2022/06/03 14:35:00;;;;;;;1.65;1.38;;;22.50;99.90;;;;;;4974109;28;20300;-75
2022/06/03 14:37:48;;;;;;;2.63;1.30;;;22.50;99.90;;;;;;4982685;28;20199;-75
2022/06/03 14:40:36;;;;;;;1.27;1.17;;;22.50;99.90;;;;;;4982718;28;20749;-76
2022/06/03 14:43:24;;;;;;;1.30;1.20;;;22.50;99.90;;;;;;4982391;28;20243;-74
2022/06/03 14:46:24;;;;;;;2.70;1.35;;;22.50;99.90;;;;;;4974454;28;20215;-73
2022/06/03 14:49:14;;;;;;;3.42;1.20;;;22.50;99.90;;;;;;4976455;28;20189;-74
2022/06/03 14:52:05;;;;;;;3.08;1.20;;;22.60;99.90;;;;;;4986240;28;20227;-75
2022/06/03 14:55:00;;;;;;;1.63;1.10;;;22.60;99.90;;;;;;4957496;28;20271;-75
2022/06/03 14:57:53;;;;;;;1.17;1.08;;;22.70;99.90;;;;;;4972192;28;20193;-76
2022/06/03 15:00:46;;;;;;;2.15;1.23;;;22.80;99.90;;;;;;4992669;28;20212;-76
2022/06/03 15:03:42;;;;;;;1.02;1.02;;;22.80;99.90;;;;;;4987601;28;20192;-76
2022/06/03 15:06:34;;;;;;;1.80;1.10;;;22.90;99.90;;;;;;4972860;28;20229;-76
2022/06/03 15:09:53;;;;;;;2.20;1.13;;;23.00;99.90;;;;;;4989865;28;20228;-75
2022/06/03 15:12:48;;;;;;;1.10;1.08;;;22.90;99.90;;;;;;4937634;28;20593;-73
2022/06/03 15:15:36;;;;;;;0.98;0.98;;;22.80;99.90;;;;;;4981138;28;20200;-75
2022/06/03 15:18:25;;;;;;;1.70;1.20;;;22.80;99.90;;;;;;4984286;28;20269;-73
2022/06/03 15:21:21;;;;;;;1.70;1.10;;;22.90;99.90;;;;;;4985225;28;20268;-73
2022/06/03 15:24:07;;;;;;;1.85;1.10;;;22.80;99.90;;;;;;4992002;28;20249;-73
2022/06/03 15:26:51;;;;;;;1.80;1.10;;;22.90;99.90;;;;;;4978356;28;20548;-74
2022/06/03 15:29:37;;;;;;;1.98;1.30;;;23.00;99.90;;;;;;4978612;28;20187;-73
2022/06/03 15:32:21;;;;;;;1.35;1.20;;;22.90;99.90;;;;;;4972355;28;20291;-74
2022/06/03 15:35:09;;;;;;;1.98;1.10;;;23.00;99.90;;;;;;4980091;28;20258;-73
2022/06/03 15:37:53;;;;;;;1.27;1.17;;;23.00;99.90;;;;;;4998171;28;20196;-74
2022/06/03 15:40:38;;;;;;;2.38;1.13;;;23.00;99.90;;;;;;4975715;28;20297;-73
2022/06/03 15:43:29;;;;;;;2.67;1.23;;;22.90;99.90;;;;;;4988798;28;20707;-74
2022/06/03 15:46:31;;;;;;;1.98;1.30;;;22.90;99.90;;;;;;4984335;28;20204;-73
2022/06/03 15:49:15;;;;;;;1.15;1.00;;;22.90;99.90;;;;;;4985311;28;20200;-73
2022/06/03 15:52:00;;;;;;;1.05;1.02;;;22.80;99.90;;;;;;4986521;28;20247;-75
2022/06/03 15:54:57;;;;;;;2.55;1.20;;;22.90;99.90;;;;;;4971150;28;20213;-72
2022/06/03 15:57:54;;;;;;;2.70;1.30;;;22.90;99.90;;;;;;4971904;28;20209;-73
2022/06/03 16:01:16;;;;;;;1.80;1.30;;;22.90;99.90;;;;;;4973334;28;20221;-74
2022/06/03 16:04:55;;;;;;;1.52;1.23;;;22.90;99.90;;;;;;4987087;28;20269;-76
2022/06/03 16:08:13;;;;;;;1.42;1.05;;;22.80;99.90;;;;;;4970466;28;20200;-75
2022/06/03 16:11:22;;;;;;;1.40;1.00;;;22.90;99.90;;;;;;4976745;28;20220;-75
2022/06/03 16:14:09;;;;;;;1.90;1.40;;;22.90;99.90;;;;;;4971050;28;20197;-74